Time;durP1;ratioP1;P1;durP2;ratioP2;P2;SDS_P1;SDS_P2;PMS_P1;PMS_P2;Temp;Humidity;BMP_temperature;BMP_pressure;BME280_temperature;BME280_humidity;BME280_pressure;Samples;Min_cycle;Max_cycle;Signal;HPM_P1;HPM_P2
2023/12/11 00:00:32;;;;;;;;;;;;;;;;;;5055106;28;20364;-14
2023/12/11 00:02:58;;;;;;;;;;;;;;;;;;5055223;28;19967;-17
2023/12/11 00:05:24;;;;;;;;;;;;;;;;;;5054642;28;20029;-16
2023/12/11 00:07:50;;;;;;;;;;;;;;;;;;5054801;28;19909;-16
2023/12/11 00:10:16;;;;;;;;;;;;;;;;;;5054669;28;19916;-14
2023/12/11 00:12:42;;;;;;;;;;;;;;;;;;5054768;28;19913;-16
2023/12/11 00:15:10;;;;;;;;;;;;;;;;;;5037153;28;19912;-16
2023/12/11 00:17:36;;;;;;;;;;;;;;;;;;5054634;28;19967;-16
2023/12/11 00:20:02;;;;;;;;;;;;;;;;;;5055172;28;19908;-15
2023/12/11 00:22:28;;;;;;;;;;;;;;;;;;5054551;28;19919;-15
2023/12/11 00:24:54;;;;;;;;;;;;;;;;;;5054628;28;20398;-17
2023/12/11 00:27:20;;;;;;;;;;;;;;;;;;5054637;28;19915;-18
2023/12/11 00:29:46;;;;;;;;;;;;;;;;;;5055138;28;19913;-16
2023/12/11 00:32:12;;;;;;;;;;;;;;;;;;5054484;28;20216;-16
2023/12/11 00:34:38;;;;;;;;;;;;;;;;;;5057151;28;19924;-16
2023/12/11 00:37:04;;;;;;;;;;;;;;;;;;5058563;28;19932;-16
2023/12/11 00:39:30;;;;;;;;;;;;;;;;;;5058528;28;19958;-16
2023/12/11 00:41:56;;;;;;;;;;;;;;;;;;5058975;28;19908;-17
2023/12/11 00:44:22;;;;;;;;;;;;;;;;;;5058643;28;19920;-16
2023/12/11 00:46:48;;;;;;;;;;;;;;;;;;5058380;28;20339;-16
2023/12/11 00:49:14;;;;;;;;;;;;;;;;;;5058626;28;19913;-17
2023/12/11 00:51:40;;;;;;;;;;;;;;;;;;5058356;28;20091;-16
2023/12/11 00:54:06;;;;;;;;;;;;;;;;;;5058717;28;19912;-17
2023/12/11 00:56:32;;;;;;;;;;;;;;;;;;5058265;28;19916;-16
2023/12/11 00:58:58;;;;;;;;;;;;;;;;;;5058683;28;19913;-16
2023/12/11 01:01:24;;;;;;;;;;;;;;;;;;5058173;28;19908;-15
2023/12/11 01:03:50;;;;;;;;;;;;;;;;;;5057849;28;19925;-17
2023/12/11 01:06:16;;;;;;;;;;;;;;;;;;5058396;28;19977;-17
2023/12/11 01:08:42;;;;;;;;;;;;;;;;;;5058537;28;20328;-16
2023/12/11 01:11:08;;;;;;;;;;;;;;;;;;5057891;28;19971;-15
2023/12/11 01:13:34;;;;;;;;;;;;;;;;;;5058046;28;19921;-16
2023/12/11 01:16:00;;;;;;;;;;;;;;;;;;5058338;28;20273;-16
2023/12/11 01:18:26;;;;;;;;;;;;;;;;;;5057784;28;19924;-16
2023/12/11 01:20:52;;;;;;;;;;;;;;;;;;5057637;28;19913;-17
2023/12/11 01:23:18;;;;;;;;;;;;;;;;;;5040013;28;19971;-15
2023/12/11 01:25:44;;;;;;;;;;;;;;;;;;5058143;28;20316;-16
2023/12/11 01:28:10;;;;;;;;;;;;;;;;;;5057611;28;19970;-16
2023/12/11 01:30:36;;;;;;;;;;;;;;;;;;5057494;28;20313;-17
2023/12/11 01:33:03;;;;;;;;;;;;;;;;;;5057384;28;19913;-18
2023/12/11 01:35:29;;;;;;;;;;;;;;;;;;5057403;28;19913;-18
2023/12/11 01:37:55;;;;;;;;;;;;;;;;;;5057336;28;19909;-17
2023/12/11 01:40:21;;;;;;;;;;;;;;;;;;5057449;28;20367;-18
2023/12/11 01:42:47;;;;;;;;;;;;;;;;;;5057318;28;19915;-18
2023/12/11 01:45:13;;;;;;;;;;;;;;;;;;5056996;28;19909;-18
2023/12/11 01:47:39;;;;;;;;;;;;;;;;;;5057288;28;19908;-19
2023/12/11 01:50:05;;;;;;;;;;;;;;;;;;5057507;28;19908;-19
2023/12/11 01:52:31;;;;;;;;;;;;;;;;;;5057185;28;20005;-18
2023/12/11 01:54:57;;;;;;;;;;;;;;;;;;5057054;28;19909;-17
2023/12/11 01:57:23;;;;;;;;;;;;;;;;;;5057211;28;20248;-17
2023/12/11 01:59:49;;;;;;;;;;;;;;;;;;5057344;28;20299;-18
2023/12/11 02:02:15;;;;;;;;;;;;;;;;;;5057331;28;19909;-18
2023/12/11 02:04:41;;;;;;;;;;;;;;;;;;5056706;28;19974;-17
2023/12/11 02:07:07;;;;;;;;;;;;;;;;;;5057389;28;19993;-18
2023/12/11 02:09:33;;;;;;;;;;;;;;;;;;5057053;28;19974;-15
2023/12/11 02:11:59;;;;;;;;;;;;;;;;;;5056901;28;20320;-17
2023/12/11 02:14:25;;;;;;;;;;;;;;;;;;5056690;28;20042;-17
2023/12/11 02:16:51;;;;;;;;;;;;;;;;;;5057009;28;19916;-17
2023/12/11 02:19:17;;;;;;;;;;;;;;;;;;5056984;28;19940;-17
2023/12/11 02:21:43;;;;;;;;;;;;;;;;;;5056625;28;20344;-17
2023/12/11 02:24:09;;;;;;;;;;;;;;;;;;5056519;28;19997;-17
2023/12/11 02:26:35;;;;;;;;;;;;;;;;;;5056584;28;20347;-15
2023/12/11 02:29:01;;;;;;;;;;;;;;;;;;5056462;28;19909;-15
2023/12/11 02:31:27;;;;;;;;;;;;;;;;;;5056352;28;19948;-16
2023/12/11 02:33:53;;;;;;;;;;;;;;;;;;5056193;28;20038;-16
2023/12/11 02:36:19;;;;;;;;;;;;;;;;;;5056216;28;19924;-17
2023/12/11 02:38:45;;;;;;;;;;;;;;;;;;5056153;28;19909;-17
2023/12/11 02:41:11;;;;;;;;;;;;;;;;;;5038620;28;20330;-16
2023/12/11 02:43:36;;;;;;;;;;;;;;;;;;5056284;28;20000;-15
2023/12/11 02:46:02;;;;;;;;;;;;;;;;;;5056081;28;19985;-17
2023/12/11 02:48:28;;;;;;;;;;;;;;;;;;5056314;28;19913;-17
2023/12/11 02:50:54;;;;;;;;;;;;;;;;;;5056017;28;20308;-17
2023/12/11 02:53:20;;;;;;;;;;;;;;;;;;5055895;28;19952;-17
2023/12/11 02:55:46;;;;;;;;;;;;;;;;;;5056175;28;20400;-17
2023/12/11 02:58:12;;;;;;;;;;;;;;;;;;5055799;28;19920;-17
2023/12/11 03:00:38;;;;;;;;;;;;;;;;;;5056068;28;19913;-18
2023/12/11 03:03:04;;;;;;;;;;;;;;;;;;5056102;28;19913;-17
2023/12/11 03:05:30;;;;;;;;;;;;;;;;;;5056333;28;20336;-17
2023/12/11 03:07:56;;;;;;;;;;;;;;;;;;5056309;28;19909;-17
2023/12/11 03:10:22;;;;;;;;;;;;;;;;;;5055657;28;19916;-16
2023/12/11 03:12:48;;;;;;;;;;;;;;;;;;5055578;28;19924;-14
2023/12/11 03:15:14;;;;;;;;;;;;;;;;;;5055608;28;20243;-16
2023/12/11 03:17:40;;;;;;;;;;;;;;;;;;5055619;28;19916;-16
2023/12/11 03:20:06;;;;;;;;;;;;;;;;;;5056076;28;19947;-18
2023/12/11 03:22:32;;;;;;;;;;;;;;;;;;5055367;28;20336;-16
2023/12/11 03:24:58;;;;;;;;;;;;;;;;;;5055418;28;19979;-17
2023/12/11 03:27:24;;;;;;;;;;;;;;;;;;5056073;28;19908;-16
2023/12/11 03:29:50;;;;;;;;;;;;;;;;;;5055242;28;19916;-17
2023/12/11 03:32:16;;;;;;;;;;;;;;;;;;5055434;28;20359;-16
2023/12/11 03:34:42;;;;;;;;;;;;;;;;;;5055273;28;19909;-16
2023/12/11 03:37:08;;;;;;;;;;;;;;;;;;5055262;28;19920;-18
2023/12/11 03:39:34;;;;;;;;;;;;;;;;;;5055732;28;19909;-18
2023/12/11 03:42:00;;;;;;;;;;;;;;;;;;5055084;28;19909;-18
2023/12/11 03:44:26;;;;;;;;;;;;;;;;;;5055649;28;20325;-18
2023/12/11 03:46:52;;;;;;;;;;;;;;;;;;5054958;28;19970;-18
2023/12/11 03:49:19;;;;;;;;;;;;;;;;;;5037465;28;19908;-18
2023/12/11 03:51:45;;;;;;;;;;;;;;;;;;5055453;28;19972;-16
2023/12/11 03:54:11;;;;;;;;;;;;;;;;;;5054799;28;20319;-16
2023/12/11 03:56:37;;;;;;;;;;;;;;;;;;5054936;28;19987;-16
2023/12/11 03:59:03;;;;;;;;;;;;;;;;;;5054919;28;20308;-16
2023/12/11 04:01:29;;;;;;;;;;;;;;;;;;5055117;28;19962;-16
2023/12/11 04:03:55;;;;;;;;;;;;;;;;;;5054612;28;19917;-16
2023/12/11 04:06:21;;;;;;;;;;;;;;;;;;5054805;28;20019;-16
2023/12/11 04:08:47;;;;;;;;;;;;;;;;;;5037224;28;20007;-14
2023/12/11 04:11:13;;;;;;;;;;;;;;;;;;5055139;28;20014;-17
2023/12/11 04:13:39;;;;;;;;;;;;;;;;;;5054898;28;19913;-16
2023/12/11 04:16:05;;;;;;;;;;;;;;;;;;5037207;28;20071;-16
2023/12/11 04:18:31;;;;;;;;;;;;;;;;;;5055299;28;19908;-16
2023/12/11 04:20:57;;;;;;;;;;;;;;;;;;5037161;28;20225;-15
2023/12/11 04:23:23;;;;;;;;;;;;;;;;;;5054651;28;19909;-17
2023/12/11 04:25:49;;;;;;;;;;;;;;;;;;5054701;28;19996;-17
2023/12/11 04:28:15;;;;;;;;;;;;;;;;;;5055134;28;19908;-17
2023/12/11 04:30:41;;;;;;;;;;;;;;;;;;5054608;28;19909;-16
2023/12/11 04:33:07;;;;;;;;;;;;;;;;;;5054504;28;20221;-17
2023/12/11 04:35:33;;;;;;;;;;;;;;;;;;5054534;28;19915;-16
2023/12/11 04:37:59;;;;;;;;;;;;;;;;;;5054478;28;19909;-16
2023/12/11 04:40:27;;;;;;;;;;;;;;;;;;5054467;28;19909;-16
2023/12/11 04:42:52;;;;;;;;;;;;;;;;;;5054329;28;19967;-17
2023/12/11 04:45:19;;;;;;;;;;;;;;;;;;5054585;28;19920;-17
2023/12/11 04:47:45;;;;;;;;;;;;;;;;;;5054614;28;19909;-17
2023/12/11 04:50:10;;;;;;;;;;;;;;;;;;5054263;28;19909;-16
2023/12/11 04:52:36;;;;;;;;;;;;;;;;;;5054400;28;19978;-17
2023/12/11 04:55:02;;;;;;;;;;;;;;;;;;5054129;28;19909;-16
2023/12/11 04:57:28;;;;;;;;;;;;;;;;;;5054283;28;19913;-17
2023/12/11 04:59:54;;;;;;;;;;;;;;;;;;5036618;28;19909;-17
2023/12/11 05:02:20;;;;;;;;;;;;;;;;;;5507394;22;19925;-20
2023/12/11 05:04:46;;;;;;;;;;;;;;;;;;5036009;28;19921;-20
2023/12/11 05:07:12;;;;;;;;;;;;;;;;;;5054275;28;20028;-21
2023/12/11 05:09:38;;;;;;;;;;;;;;;;;;5053928;28;19936;-21
2023/12/11 05:12:04;;;;;;;;;;;;;;;;;;5053843;28;19916;-23
2023/12/11 05:14:30;;;;;;;;;;;;;;;;;;5053984;28;20313;-22
2023/12/11 05:16:56;;;;;;;;;;;;;;;;;;5054000;28;19913;-20
2023/12/11 05:19:22;;;;;;;;;;;;;;;;;;5054524;28;20378;-21
2023/12/11 05:21:48;;;;;;;;;;;;;;;;;;5057403;28;19908;-21
2023/12/11 05:24:14;;;;;;;;;;;;;;;;;;5057729;28;19909;-20
2023/12/11 05:26:40;;;;;;;;;;;;;;;;;;5039802;28;19951;-21
2023/12/11 05:29:06;;;;;;;;;;;;;;;;;;5057470;28;20212;-21
2023/12/11 05:31:32;;;;;;;;;;;;;;;;;;5057429;28;19928;-21
2023/12/11 05:33:58;;;;;;;;;;;;;;;;;;5057023;28;20261;-20
2023/12/11 05:36:24;;;;;;;;;;;;;;;;;;5057236;28;19995;-22
2023/12/11 05:38:50;;;;;;;;;;;;;;;;;;5057231;28;19909;-20
2023/12/11 05:41:16;;;;;;;;;;;;;;;;;;5056937;28;19912;-19
2023/12/11 05:43:42;;;;;;;;;;;;;;;;;;5057122;28;20389;-22
2023/12/11 05:46:08;;;;;;;;;;;;;;;;;;5057161;28;19948;-21
2023/12/11 05:48:34;;;;;;;;;;;;;;;;;;5039550;28;19966;-20
2023/12/11 05:51:00;;;;;;;;;;;;;;;;;;5039346;28;19908;-21
2023/12/11 05:53:26;;;;;;;;;;;;;;;;;;5056606;28;20438;-21
2023/12/11 05:55:52;;;;;;;;;;;;;;;;;;5057037;28;19909;-21
2023/12/11 05:58:18;;;;;;;;;;;;;;;;;;5056934;28;19916;-20
2023/12/11 06:00:47;;;;;;;;;;;;;;;;;;5039181;28;19971;-23
2023/12/11 06:03:13;;;;;;;;;;;;;;;;;;5056226;28;19916;-22
2023/12/11 06:05:39;;;;;;;;;;;;;;;;;;5039135;28;19931;-20
2023/12/11 06:08:06;;;;;;;;;;;;;;;;;;5056997;28;20224;-21
2023/12/11 06:10:32;;;;;;;;;;;;;;;;;;5056849;28;19913;-20
2023/12/11 06:12:58;;;;;;;;;;;;;;;;;;5038969;28;19917;-21
2023/12/11 06:15:24;;;;;;;;;;;;;;;;;;5056523;28;19909;-21
2023/12/11 06:17:50;;;;;;;;;;;;;;;;;;5056741;28;19909;-21
2023/12/11 06:20:16;;;;;;;;;;;;;;;;;;5056491;28;20004;-21
2023/12/11 06:22:42;;;;;;;;;;;;;;;;;;5056489;28;19962;-20
2023/12/11 06:25:08;;;;;;;;;;;;;;;;;;5056680;28;19971;-20
2023/12/11 06:27:34;;;;;;;;;;;;;;;;;;5056240;28;19932;-19
2023/12/11 06:30:00;;;;;;;;;;;;;;;;;;5056432;28;19908;-20
2023/12/11 06:32:26;;;;;;;;;;;;;;;;;;5054967;28;20312;-22
2023/12/11 06:34:52;;;;;;;;;;;;;;;;;;5056191;28;19916;-22
2023/12/11 06:37:18;;;;;;;;;;;;;;;;;;5056568;28;20231;-20
2023/12/11 06:39:44;;;;;;;;;;;;;;;;;;5056140;28;20016;-19
2023/12/11 06:42:10;;;;;;;;;;;;;;;;;;5038299;28;19909;-21
2023/12/11 06:44:36;;;;;;;;;;;;;;;;;;5055853;28;19913;-21
2023/12/11 06:47:02;;;;;;;;;;;;;;;;;;5055678;28;19947;-21
2023/12/11 06:49:28;;;;;;;;;;;;;;;;;;5038500;28;19912;-22
2023/12/11 06:51:55;;;;;;;;;;;;;;;;;;5055782;28;19920;-20
2023/12/11 06:54:21;;;;;;;;;;;;;;;;;;5055885;28;19970;-21
2023/12/11 06:56:47;;;;;;;;;;;;;;;;;;5055732;28;19913;-21
2023/12/11 06:59:13;;;;;;;;;;;;;;;;;;5055607;28;20224;-20
2023/12/11 07:01:39;;;;;;;;;;;;;;;;;;5055575;28;20400;-21
2023/12/11 07:04:05;;;;;;;;;;;;;;;;;;5034263;28;19921;-21
2023/12/11 07:06:31;;;;;;;;;;;;;;;;;;5035428;28;19970;-21
2023/12/11 07:08:57;;;;;;;;;;;;;;;;;;5035655;28;19909;-21
2023/12/11 07:11:24;;;;;;;;;;;;;;;;;;5035300;28;20374;-23
2023/12/11 07:13:50;;;;;;;;;;;;;;;;;;5034949;28;19971;-23
2023/12/11 07:16:18;;;;;;;;;;;;;;;;;;5033455;28;21276;-21
2023/12/11 07:18:44;;;;;;;;;;;;;;;;;;5034296;28;19909;-21
2023/12/11 07:21:10;;;;;;;;;;;;;;;;;;5034275;28;19905;-23
2023/12/11 07:23:36;;;;;;;;;;;;;;;;;;5034086;28;20339;-21
2023/12/11 07:26:07;;;;;;;;;;;;;;;;;;5032960;28;20394;-21
2023/12/11 07:28:33;;;;;;;;;;;;;;;;;;5033093;28;20311;-20
2023/12/11 07:31:00;;;;;;;;;;;;;;;;;;5034297;28;19990;-21
2023/12/11 07:33:26;;;;;;;;;;;;;;;;;;5033697;28;19999;-20
2023/12/11 07:35:52;;;;;;;;;;;;;;;;;;5033781;28;19952;-23
2023/12/11 07:38:18;;;;;;;;;;;;;;;;;;5033025;28;19909;-21
2023/12/11 07:40:44;;;;;;;;;;;;;;;;;;5034366;28;19936;-21
2023/12/11 07:43:11;;;;;;;;;;;;;;;;;;5034319;28;19949;-21
2023/12/11 07:45:37;;;;;;;;;;;;;;;;;;5033714;28;19920;-22
2023/12/11 07:48:03;;;;;;;;;;;;;;;;;;5034578;28;19909;-21
2023/12/11 07:50:29;;;;;;;;;;;;;;;;;;5033418;28;19909;-19
2023/12/11 07:52:55;;;;;;;;;;;;;;;;;;5034189;28;19913;-21
2023/12/11 07:55:21;;;;;;;;;;;;;;;;;;5034556;28;19928;-24
2023/12/11 07:57:47;;;;;;;;;;;;;;;;;;5034385;28;20328;-22
2023/12/11 08:00:13;;;;;;;;;;;;;;;;;;5034189;28;19917;-22
2023/12/11 08:02:39;;;;;;;;;;;;;;;;;;5036657;28;19950;-21
2023/12/11 08:05:05;;;;;;;;;;;;;;;;;;5036628;28;19979;-20
2023/12/11 08:07:31;;;;;;;;;;;;;;;;;;5036293;28;19923;-20
2023/12/11 08:09:57;;;;;;;;;;;;;;;;;;5054162;28;20453;-19
2023/12/11 08:12:25;;;;;;;;;;;;;;;;;;5054037;28;19913;-22
2023/12/11 08:14:51;;;;;;;;;;;;;;;;;;5054268;28;19916;-19
2023/12/11 08:17:17;;;;;;;;;;;;;;;;;;5053996;28;19909;-21
2023/12/11 08:19:42;;;;;;;;;;;;;;;;;;5036170;28;20362;-22
2023/12/11 08:22:08;;;;;;;;;;;;;;;;;;5053960;28;20255;-22
2023/12/11 08:24:35;;;;;;;;;;;;;;;;;;5054116;28;19909;-21
2023/12/11 08:27:01;;;;;;;;;;;;;;;;;;5053852;28;20294;-22
2023/12/11 08:29:27;;;;;;;;;;;;;;;;;;5054295;28;19909;-20
2023/12/11 08:31:53;;;;;;;;;;;;;;;;;;5053810;28;19962;-21
2023/12/11 08:34:20;;;;;;;;;;;;;;;;;;5054024;28;20323;-22
2023/12/11 08:36:46;;;;;;;;;;;;;;;;;;5053555;28;19994;-20
2023/12/11 08:39:12;;;;;;;;;;;;;;;;;;5053967;28;19952;-21
2023/12/11 08:41:38;;;;;;;;;;;;;;;;;;5054082;28;19976;-23
2023/12/11 08:44:04;;;;;;;;;;;;;;;;;;5035839;28;19909;-21
2023/12/11 08:46:31;;;;;;;;;;;;;;;;;;5035871;28;19908;-21
2023/12/11 08:48:58;;;;;;;;;;;;;;;;;;5053670;28;19992;-22
2023/12/11 08:51:24;;;;;;;;;;;;;;;;;;5053770;28;19909;-21
2023/12/11 08:53:50;;;;;;;;;;;;;;;;;;5053567;28;20420;-22
2023/12/11 08:56:16;;;;;;;;;;;;;;;;;;5057110;28;19913;-21
2023/12/11 08:58:43;;;;;;;;;;;;;;;;;;5039732;28;19909;-20
2023/12/11 09:01:09;;;;;;;;;;;;;;;;;;5057701;28;19909;-20
2023/12/11 09:03:35;;;;;;;;;;;;;;;;;;5057097;28;19921;-21
2023/12/11 09:06:02;;;;;;;;;;;;;;;;;;5057219;28;19959;-22
2023/12/11 09:08:28;;;;;;;;;;;;;;;;;;5056936;28;19996;-20
2023/12/11 09:10:54;;;;;;;;;;;;;;;;;;5056891;28;19944;-21
2023/12/11 09:13:20;;;;;;;;;;;;;;;;;;5039281;28;20028;-22
2023/12/11 09:15:47;;;;;;;;;;;;;;;;;;5057217;28;19971;-22
2023/12/11 09:18:13;;;;;;;;;;;;;;;;;;5056907;28;20355;-21
2023/12/11 09:20:39;;;;;;;;;;;;;;;;;;5056981;28;19916;-21
2023/12/11 09:23:05;;;;;;;;;;;;;;;;;;5056945;28;19987;-20
2023/12/11 09:25:31;;;;;;;;;;;;;;;;;;5056961;28;19938;-21
2023/12/11 09:27:57;;;;;;;;;;;;;;;;;;5057395;28;20003;-23
2023/12/11 09:30:23;;;;;;;;;;;;;;;;;;5057028;28;19920;-22
2023/12/11 09:32:49;;;;;;;;;;;;;;;;;;5057010;28;19912;-22
2023/12/11 09:35:15;;;;;;;;;;;;;;;;;;5056975;28;20370;-20
2023/12/11 09:37:41;;;;;;;;;;;;;;;;;;5056776;28;19909;-20
2023/12/11 09:40:07;;;;;;;;;;;;;;;;;;5039068;28;19951;-20
2023/12/11 09:42:33;;;;;;;;;;;;;;;;;;5056488;28;19908;-20
2023/12/11 09:44:59;;;;;;;;;;;;;;;;;;5056031;28;19971;-21
2023/12/11 09:47:25;;;;;;;;;;;;;;;;;;5055579;28;19913;-22
2023/12/11 09:49:51;;;;;;;;;;;;;;;;;;5055619;28;19920;-21
2023/12/11 09:52:17;;;;;;;;;;;;;;;;;;5055531;28;19995;-20
2023/12/11 09:54:43;;;;;;;;;;;;;;;;;;5055566;28;20228;-21
2023/12/11 09:57:09;;;;;;;;;;;;;;;;;;5055432;28;19916;-20
2023/12/11 09:59:35;;;;;;;;;;;;;;;;;;5037856;28;19908;-20
2023/12/11 10:02:01;;;;;;;;;;;;;;;;;;5055420;28;20177;-19
2023/12/11 10:04:27;;;;;;;;;;;;;;;;;;5034353;28;19921;-23
2023/12/11 10:06:53;;;;;;;;;;;;;;;;;;5034255;28;19920;-24
2023/12/11 10:09:19;;;;;;;;;;;;;;;;;;5035209;28;19909;-21
2023/12/11 10:11:45;;;;;;;;;;;;;;;;;;5034152;28;20236;-21
2023/12/11 10:14:12;;;;;;;;;;;;;;;;;;5035056;28;19921;-22
2023/12/11 10:16:38;;;;;;;;;;;;;;;;;;5035078;28;19975;-20
2023/12/11 10:19:04;;;;;;;;;;;;;;;;;;5035080;28;19913;-20
2023/12/11 10:21:29;;;;;;;;;;;;;;;;;;5035650;28;20229;-22
2023/12/11 10:23:55;;;;;;;;;;;;;;;;;;5035647;28;19908;-21
2023/12/11 10:26:21;;;;;;;;;;;;;;;;;;5036100;28;19915;-23
2023/12/11 10:28:47;;;;;;;;;;;;;;;;;;5036135;28;19909;-21
2023/12/11 10:31:13;;;;;;;;;;;;;;;;;;5036148;28;19909;-20
2023/12/11 10:33:39;;;;;;;;;;;;;;;;;;5036080;28;20335;-21
2023/12/11 10:36:05;;;;;;;;;;;;;;;;;;5036538;28;19909;-20
2023/12/11 10:38:31;;;;;;;;;;;;;;;;;;5036275;28;20115;-25
2023/12/11 10:40:57;;;;;;;;;;;;;;;;;;5035763;28;19909;-21
2023/12/11 10:43:23;;;;;;;;;;;;;;;;;;5035733;28;20236;-21
2023/12/11 10:45:49;;;;;;;;;;;;;;;;;;5035973;28;19963;-21
2023/12/11 10:48:15;;;;;;;;;;;;;;;;;;5035704;28;19909;-20
2023/12/11 10:50:41;;;;;;;;;;;;;;;;;;5035715;28;19909;-19
2023/12/11 10:53:08;;;;;;;;;;;;;;;;;;5034422;28;20193;-20
2023/12/11 10:55:34;;;;;;;;;;;;;;;;;;5035661;28;19909;-20
2023/12/11 10:58:00;;;;;;;;;;;;;;;;;;5035779;28;19944;-22
2023/12/11 11:00:26;;;;;;;;;;;;;;;;;;5035936;28;19920;-21
2023/12/11 11:02:52;;;;;;;;;;;;;;;;;;5034183;28;19998;-21
2023/12/11 11:05:18;;;;;;;;;;;;;;;;;;5035492;28;19913;-21
2023/12/11 11:07:44;;;;;;;;;;;;;;;;;;5035407;28;20310;-20
2023/12/11 11:10:10;;;;;;;;;;;;;;;;;;5035498;28;19988;-21
2023/12/11 11:12:36;;;;;;;;;;;;;;;;;;5034467;28;19971;-21
2023/12/11 11:15:02;;;;;;;;;;;;;;;;;;5035418;28;19916;-22
2023/12/11 11:17:28;;;;;;;;;;;;;;;;;;5034697;28;19913;-22
2023/12/11 11:19:54;;;;;;;;;;;;;;;;;;5035420;28;20336;-21
2023/12/11 11:22:20;;;;;;;;;;;;;;;;;;5035226;28;19975;-21
2023/12/11 11:24:46;;;;;;;;;;;;;;;;;;5035202;28;19936;-19
2023/12/11 11:27:12;;;;;;;;;;;;;;;;;;5035026;28;20352;-19
2023/12/11 11:29:39;;;;;;;;;;;;;;;;;;5034150;28;19939;-22
2023/12/11 11:32:05;;;;;;;;;;;;;;;;;;5034740;28;19936;-25
2023/12/11 11:34:31;;;;;;;;;;;;;;;;;;5034829;28;19913;-28
2023/12/11 11:36:57;;;;;;;;;;;;;;;;;;5034700;28;19952;-27
2023/12/11 11:39:23;;;;;;;;;;;;;;;;;;5034695;28;20297;-23
2023/12/11 11:41:49;;;;;;;;;;;;;;;;;;5034989;28;20051;-22
2023/12/11 11:44:15;;;;;;;;;;;;;;;;;;5034666;28;20267;-27
2023/12/11 11:46:41;;;;;;;;;;;;;;;;;;5034769;28;19909;-27
2023/12/11 11:49:07;;;;;;;;;;;;;;;;;;5034690;28;20299;-23
2023/12/11 11:51:32;;;;;;;;;;;;;;;;;;5034766;28;19909;-23
2023/12/11 11:53:58;;;;;;;;;;;;;;;;;;5034509;28;19966;-23
2023/12/11 11:56:25;;;;;;;;;;;;;;;;;;5034706;28;19919;-29
2023/12/11 11:58:51;;;;;;;;;;;;;;;;;;5033137;28;20336;-23
2023/12/11 12:01:17;;;;;;;;;;;;;;;;;;5033820;28;19959;-23
2023/12/11 12:03:43;;;;;;;;;;;;;;;;;;5045100;28;19921;-26
2023/12/11 12:06:09;;;;;;;;;;;;;;;;;;5036028;28;20323;-22
2023/12/11 12:08:36;;;;;;;;;;;;;;;;;;5053788;28;20312;-22
2023/12/11 12:11:02;;;;;;;;;;;;;;;;;;5053941;28;19909;-23
2023/12/11 12:13:29;;;;;;;;;;;;;;;;;;5053559;28;20300;-25
2023/12/11 12:15:55;;;;;;;;;;;;;;;;;;5036115;28;20032;-25
2023/12/11 12:18:21;;;;;;;;;;;;;;;;;;5053788;28;19956;-27
2023/12/11 12:20:47;;;;;;;;;;;;;;;;;;5053546;28;19936;-25
2023/12/11 12:23:13;;;;;;;;;;;;;;;;;;5053858;28;19916;-24
2023/12/11 12:25:39;;;;;;;;;;;;;;;;;;5053843;28;20319;-23
2023/12/11 12:28:05;;;;;;;;;;;;;;;;;;5054296;28;19980;-26
2023/12/11 12:30:31;;;;;;;;;;;;;;;;;;5039086;28;19971;-21
2023/12/11 12:32:57;;;;;;;;;;;;;;;;;;5058098;28;20011;-27
2023/12/11 12:35:23;;;;;;;;;;;;;;;;;;5058009;28;20009;-25
2023/12/11 12:37:49;;;;;;;;;;;;;;;;;;5057739;28;19909;-24
2023/12/11 12:40:17;;;;;;;;;;;;;;;;;;5040066;28;19915;-26
2023/12/11 12:42:43;;;;;;;;;;;;;;;;;;5057804;28;19909;-24
2023/12/11 12:45:09;;;;;;;;;;;;;;;;;;5057827;28;19916;-25
2023/12/11 12:47:35;;;;;;;;;;;;;;;;;;5058633;28;19935;-25
2023/12/11 12:50:06;;;;;;;;;;;;;;;;;;5057703;28;20046;-22
2023/12/11 12:52:36;;;;;;;;;;;;;;;;;;5057648;28;20355;-27
2023/12/11 12:55:02;;;;;;;;;;;;;;;;;;5057755;28;19908;-21
2023/12/11 12:57:28;;;;;;;;;;;;;;;;;;5057371;28;20305;-25
2023/12/11 12:59:54;;;;;;;;;;;;;;;;;;5057318;28;19916;-23
2023/12/11 13:02:20;;;;;;;;;;;;;;;;;;5057532;28;19915;-24
2023/12/11 13:04:46;;;;;;;;;;;;;;;;;;5057344;28;19913;-21
2023/12/11 13:07:12;;;;;;;;;;;;;;;;;;5057453;28;19909;-24
2023/12/11 13:09:38;;;;;;;;;;;;;;;;;;5057567;28;19962;-21
2023/12/11 13:12:04;;;;;;;;;;;;;;;;;;5057108;28;20201;-25
2023/12/11 13:14:30;;;;;;;;;;;;;;;;;;5057387;28;20009;-24
2023/12/11 13:16:56;;;;;;;;;;;;;;;;;;5057144;28;20355;-24
2023/12/11 13:19:23;;;;;;;;;;;;;;;;;;5057221;28;19908;-23
2023/12/11 13:21:49;;;;;;;;;;;;;;;;;;5057349;28;19908;-21
2023/12/11 13:24:15;;;;;;;;;;;;;;;;;;5056997;28;19916;-27
2023/12/11 13:26:41;;;;;;;;;;;;;;;;;;5057177;28;19916;-28
2023/12/11 13:29:07;;;;;;;;;;;;;;;;;;5057048;28;20354;-24
2023/12/11 13:31:33;;;;;;;;;;;;;;;;;;5057209;28;19959;-22
2023/12/11 13:33:59;;;;;;;;;;;;;;;;;;5056970;28;19913;-23
2023/12/11 13:36:25;;;;;;;;;;;;;;;;;;5056743;28;19944;-22
2023/12/11 13:38:51;;;;;;;;;;;;;;;;;;5038998;28;20339;-24
2023/12/11 13:41:17;;;;;;;;;;;;;;;;;;5056252;28;19928;-27
2023/12/11 13:43:43;;;;;;;;;;;;;;;;;;5056555;28;19909;-25
2023/12/11 13:46:09;;;;;;;;;;;;;;;;;;5056712;28;19970;-21
2023/12/11 13:48:36;;;;;;;;;;;;;;;;;;5057375;28;19919;-24
2023/12/11 13:51:02;;;;;;;;;;;;;;;;;;5056436;28;19963;-23
2023/12/11 13:53:28;;;;;;;;;;;;;;;;;;5056863;28;20247;-22
2023/12/11 13:55:54;;;;;;;;;;;;;;;;;;5038980;28;19909;-26
2023/12/11 13:58:20;;;;;;;;;;;;;;;;;;5038979;28;20420;-29
2023/12/11 14:00:46;;;;;;;;;;;;;;;;;;5056387;28;19912;-23
2023/12/11 14:03:12;;;;;;;;;;;;;;;;;;5056101;28;19932;-23
2023/12/11 14:05:38;;;;;;;;;;;;;;;;;;5056424;28;19920;-21
2023/12/11 14:08:04;;;;;;;;;;;;;;;;;;5056476;28;19912;-24
2023/12/11 14:10:30;;;;;;;;;;;;;;;;;;5056344;28;20263;-25
2023/12/11 14:12:57;;;;;;;;;;;;;;;;;;5055900;28;19917;-23
2023/12/11 14:15:23;;;;;;;;;;;;;;;;;;5055928;28;20043;-23
2023/12/11 14:17:49;;;;;;;;;;;;;;;;;;5056278;28;20000;-22
2023/12/11 14:20:15;;;;;;;;;;;;;;;;;;5056130;28;20370;-21
2023/12/11 14:22:41;;;;;;;;;;;;;;;;;;5056220;28;19959;-22
2023/12/11 14:25:08;;;;;;;;;;;;;;;;;;5056586;28;19909;-25
2023/12/11 14:27:34;;;;;;;;;;;;;;;;;;5056292;28;20357;-27
2023/12/11 14:30:00;;;;;;;;;;;;;;;;;;5056379;28;19909;-22
2023/12/11 14:32:26;;;;;;;;;;;;;;;;;;5056221;28;20269;-26
2023/12/11 14:34:52;;;;;;;;;;;;;;;;;;5056075;28;19915;-26
2023/12/11 14:37:18;;;;;;;;;;;;;;;;;;5056562;28;19935;-25
2023/12/11 14:39:44;;;;;;;;;;;;;;;;;;5056367;28;20354;-24
2023/12/11 14:42:09;;;;;;;;;;;;;;;;;;5055929;28;19909;-27
2023/12/11 14:44:35;;;;;;;;;;;;;;;;;;5056247;28;19919;-28
2023/12/11 14:47:01;;;;;;;;;;;;;;;;;;5056059;28;19909;-24
2023/12/11 14:49:27;;;;;;;;;;;;;;;;;;5055893;28;19917;-27
2023/12/11 14:51:53;;;;;;;;;;;;;;;;;;5037390;28;20255;-25
2023/12/11 14:54:20;;;;;;;;;;;;;;;;;;5055405;28;20003;-28
2023/12/11 14:56:46;;;;;;;;;;;;;;;;;;5055344;28;19996;-24
2023/12/11 14:59:11;;;;;;;;;;;;;;;;;;5055422;28;19955;-29
2023/12/11 15:01:38;;;;;;;;;;;;;;;;;;5055448;28;19920;-28
2023/12/11 15:04:07;;;;;;;;;;;;;;;;;;5037468;28;19960;-22
2023/12/11 15:06:33;;;;;;;;;;;;;;;;;;5055360;28;19939;-25
2023/12/11 15:08:59;;;;;;;;;;;;;;;;;;5037504;28;19956;-21
2023/12/11 15:11:25;;;;;;;;;;;;;;;;;;5055263;28;19988;-22
2023/12/11 15:13:52;;;;;;;;;;;;;;;;;;5055362;28;20355;-22
2023/12/11 15:16:18;;;;;;;;;;;;;;;;;;5055174;28;19923;-26
2023/12/11 15:18:44;;;;;;;;;;;;;;;;;;5037356;28;20352;-25
2023/12/11 15:21:10;;;;;;;;;;;;;;;;;;5054551;28;19909;-24
2023/12/11 15:23:36;;;;;;;;;;;;;;;;;;5054425;28;19909;-25
2023/12/11 15:26:03;;;;;;;;;;;;;;;;;;5037012;28;19909;-26
2023/12/11 15:28:29;;;;;;;;;;;;;;;;;;5054799;28;19908;-25
2023/12/11 15:30:55;;;;;;;;;;;;;;;;;;5037130;28;19920;-29
2023/12/11 15:33:21;;;;;;;;;;;;;;;;;;5054668;28;19959;-24
2023/12/11 15:35:47;;;;;;;;;;;;;;;;;;5054596;28;19955;-28
2023/12/11 15:38:13;;;;;;;;;;;;;;;;;;5054466;28;19916;-22
2023/12/11 15:40:39;;;;;;;;;;;;;;;;;;5054494;28;19909;-24
2023/12/11 15:43:05;;;;;;;;;;;;;;;;;;5054646;28;20193;-21
2023/12/11 15:45:31;;;;;;;;;;;;;;;;;;5037036;28;19915;-22
2023/12/11 15:47:57;;;;;;;;;;;;;;;;;;5037128;28;19913;-25
2023/12/11 15:50:24;;;;;;;;;;;;;;;;;;5054697;28;20331;-27
2023/12/11 15:52:49;;;;;;;;;;;;;;;;;;5054379;28;19913;-21
2023/12/11 15:55:15;;;;;;;;;;;;;;;;;;5054609;28;19940;-24
2023/12/11 15:57:42;;;;;;;;;;;;;;;;;;5054629;28;19909;-27
2023/12/11 16:00:10;;;;;;;;;;;;;;;;;;5054058;28;20336;-29
2023/12/11 16:02:40;;;;;;;;;;;;;;;;;;5054122;28;19924;-25
2023/12/11 16:05:06;;;;;;;;;;;;;;;;;;5054201;28;19974;-22
2023/12/11 16:07:31;;;;;;;;;;;;;;;;;;5054106;28;20320;-25
2023/12/11 16:09:57;;;;;;;;;;;;;;;;;;5053877;28;19909;-24
2023/12/11 16:12:24;;;;;;;;;;;;;;;;;;5054072;28;19916;-25
2023/12/11 16:14:50;;;;;;;;;;;;;;;;;;5053854;28;20095;-26
2023/12/11 16:17:16;;;;;;;;;;;;;;;;;;5053714;28;20363;-27
2023/12/11 16:19:42;;;;;;;;;;;;;;;;;;5054121;28;19920;-23
2023/12/11 16:22:08;;;;;;;;;;;;;;;;;;5035828;28;19920;-27
2023/12/11 16:24:34;;;;;;;;;;;;;;;;;;5053562;28;19909;-26
2023/12/11 16:27:00;;;;;;;;;;;;;;;;;;5053593;28;20270;-24
2023/12/11 16:29:26;;;;;;;;;;;;;;;;;;5036045;28;19940;-28
2023/12/11 16:31:52;;;;;;;;;;;;;;;;;;5053805;28;20339;-30
2023/12/11 16:34:18;;;;;;;;;;;;;;;;;;5053632;28;19939;-22
2023/12/11 16:36:44;;;;;;;;;;;;;;;;;;5053737;28;19913;-25